sensor_id;sensor_type;location;lat;lon;timestamp;P1;durP1;ratioP1;P2;durP2;ratioP2
68690;SDS011;55675;49.588;8.640;2023-03-01T13:48:35;11.38;;;10.27;;
68690;SDS011;55675;49.588;8.640;2023-03-01T13:51:04;10.73;;;9.63;;
68690;SDS011;55675;49.588;8.640;2023-03-01T13:53:36;10.33;;;8.70;;
68690;SDS011;55675;49.588;8.640;2023-03-01T13:56:08;10.80;;;9.37;;
68690;SDS011;55675;49.588;8.640;2023-03-01T13:58:58;10.73;;;9.40;;
68690;SDS011;55675;49.588;8.640;2023-03-01T14:01:28;9.33;;;8.50;;
68690;SDS011;55675;49.588;8.640;2023-03-01T14:03:55;10.20;;;9.20;;
68690;SDS011;55675;49.588;8.640;2023-03-01T14:06:22;10.25;;;9.35;;
68690;SDS011;55675;49.588;8.640;2023-03-01T14:09:00;10.38;;;9.38;;
68690;SDS011;55675;49.588;8.640;2023-03-01T14:14:13;9.93;;;8.93;;
68690;SDS011;55675;49.588;8.640;2023-03-01T14:19:29;10.87;;;8.63;;
68690;SDS011;55675;49.588;8.640;2023-03-01T15:01:53;9.20;;;8.20;;
68690;SDS011;55675;49.588;8.640;2023-03-01T15:04:21;10.07;;;7.97;;
68690;SDS011;55675;49.588;8.640;2023-03-01T15:06:52;9.00;;;7.30;;
68690;SDS011;55675;49.588;8.640;2023-03-01T15:09:20;8.63;;;7.00;;
68690;SDS011;55675;49.588;8.640;2023-03-01T15:11:47;8.77;;;7.87;;
68690;SDS011;55675;49.588;8.640;2023-03-01T15:17:18;9.77;;;7.90;;
68690;SDS011;55675;49.588;8.640;2023-03-01T15:19:53;8.97;;;8.07;;
68690;SDS011;55675;49.588;8.640;2023-03-01T15:22:19;10.97;;;8.57;;
68690;SDS011;55675;49.588;8.640;2023-03-01T15:24:49;8.93;;;8.03;;
68690;SDS011;55675;49.588;8.640;2023-03-01T15:27:16;8.30;;;7.50;;
68690;SDS011;55675;49.588;8.640;2023-03-01T15:29:58;9.07;;;8.03;;
68690;SDS011;55675;49.588;8.640;2023-03-01T15:32:27;7.93;;;7.13;;
68690;SDS011;55675;49.588;8.640;2023-03-01T15:34:52;7.53;;;6.72;;
68690;SDS011;55675;49.588;8.640;2023-03-01T15:40:31;8.93;;;7.37;;
68690;SDS011;55675;49.588;8.640;2023-03-01T15:42:57;7.97;;;7.17;;
68690;SDS011;55675;49.588;8.640;2023-03-01T15:45:27;7.67;;;6.97;;
68690;SDS011;55675;49.588;8.640;2023-03-01T15:47:58;8.10;;;7.37;;
68690;SDS011;55675;49.588;8.640;2023-03-01T15:50:40;7.53;;;6.83;;
68690;SDS011;55675;49.588;8.640;2023-03-01T15:53:12;8.30;;;7.50;;
68690;SDS011;55675;49.588;8.640;2023-03-01T15:55:39;7.53;;;6.80;;
68690;SDS011;55675;49.588;8.640;2023-03-01T15:58:10;8.13;;;7.17;;
68690;SDS011;55675;49.588;8.640;2023-03-01T16:00:44;7.23;;;6.53;;
68690;SDS011;55675;49.588;8.640;2023-03-01T16:03:12;7.67;;;6.90;;
68690;SDS011;55675;49.588;8.640;2023-03-01T16:05:37;9.33;;;6.90;;
68690;SDS011;55675;49.588;8.640;2023-03-01T16:08:04;7.40;;;6.70;;
68690;SDS011;55675;49.588;8.640;2023-03-01T16:10:34;7.53;;;6.70;;
68690;SDS011;55675;49.588;8.640;2023-03-01T16:13:00;7.27;;;6.57;;
68690;SDS011;55675;49.588;8.640;2023-03-01T16:15:29;7.83;;;6.80;;
68690;SDS011;55675;49.588;8.640;2023-03-01T16:17:56;7.80;;;7.10;;
68690;SDS011;55675;49.588;8.640;2023-03-01T16:20:25;7.73;;;6.93;;
68690;SDS011;55675;49.588;8.640;2023-03-01T16:22:51;7.73;;;6.93;;
68690;SDS011;55675;49.588;8.640;2023-03-01T16:25:18;8.30;;;7.20;;
68690;SDS011;55675;49.588;8.640;2023-03-01T16:27:46;8.13;;;7.30;;
68690;SDS011;55675;49.588;8.640;2023-03-01T16:32:41;7.50;;;6.73;;
68690;SDS011;55675;49.588;8.640;2023-03-01T16:35:08;7.50;;;6.80;;
68690;SDS011;55675;49.588;8.640;2023-03-01T16:37:35;7.87;;;7.07;;
68690;SDS011;55675;49.588;8.640;2023-03-01T16:40:02;7.90;;;7.10;;
68690;SDS011;55675;49.588;8.640;2023-03-01T16:42:32;7.30;;;6.57;;
